KH6HHG Weather Reports


Display with metric or nautical units.
time (UTC)temp
F
wind
direction
speed
MPH
gust
MPH
rain 1hr
in
rain 24hr
in
rain mn
in
humidity
%
barometer
mb
20180920210737 83 314 2.0 3.0 0.00 0.00 0.00 71 1010.6
20180920210236 83 336 3.0 5.0 0.00 0.00 0.00 71 1010.6
20180920205736 83 233 3.0 5.0 0.00 0.00 0.00 70 1010.6
20180920205236 84 239 3.0 5.0 0.00 0.00 0.00 69 1010.5
20180920204736 85 215 2.0 5.0 0.00 0.00 0.00 68 1010.6
20180920204238 85 268 5.0 5.0 0.00 0.00 0.00 71 1010.6
20180920203737 85 252 2.0 3.0 0.00 0.00 0.00 71 1010.6
20180920203237 85 217 1.0 3.0 0.00 0.00 0.00 69 1010.7
20180920202737 85 296 1.0 1.0 0.00 0.00 0.00 70 1010.7
20180920202237 84 206 1.0 1.0 0.00 0.00 0.00 69 1010.7
20180920201736 84 246 1.0 6.0 0.00 0.00 0.00 70 1010.7
20180920201236 84 282 2.0 3.0 0.00 0.00 0.00 71 1010.8
20180920200736 84 197 3.0 5.0 0.00 0.00 0.00 72 1010.7
20180920200238 83 233 1.0 6.0 0.00 0.00 0.00 73 1010.8
20180920195737 82 230 2.0 2.0 0.00 0.00 0.00 73 1010.7
20180920195236 82 234 5.0 5.0 0.00 0.00 0.00 74 1010.7
20180920194736 82 228 5.0 7.0 0.00 0.00 0.00 73 1010.7
20180920194238 82 227 5.0 6.0 0.00 0.00 0.00 73 1010.7
20180920193737 82 164 2.0 3.0 0.00 0.00 0.00 72 1010.7
20180920193237 82 227 2.0 5.0 0.00 0.00 0.00 72 1010.9
20180920192737 82 233 2.0 3.0 0.00 0.00 0.00 72 1010.9
20180920192237 83 237 3.0 6.0 0.00 0.00 0.00 72 1010.8
20180920191737 82 128 2.0 5.0 0.00 0.00 0.00 73 1010.7
20180920191236 82 224 1.0 3.0 0.00 0.00 0.00 70 1010.7
20180920190736 82 227 2.0 3.0 0.00 0.00 0.00 72 1010.8
20180920190238 82 6 0.0 0.0 0.00 0.00 0.00 70 1010.8
20180920185738 82 6 0.0 3.0 0.00 0.00 0.00 72 1010.8
20180920185237 81 2 2.0 3.0 0.00 0.00 0.00 74 1010.9
20180920184737 81 338 3.0 5.0 0.00 0.00 0.00 76 1010.8
20180920184237 80 23 2.0 3.0 0.00 0.00 0.00 76 1010.7
20180920183737 79 325 3.0 3.0 0.00 0.00 0.00 79 1010.7
20180920183236 78 25 2.0 3.0 0.00 0.00 0.00 81 1010.6
20180920182736 77 206 0.0 1.0 0.00 0.00 0.00 81 1010.5
20180920182238 77 206 1.0 2.0 0.00 0.00 0.00 83 1010.5
20180920181738 76 198 1.0 3.0 0.00 0.00 0.00 84 1010.6
20180920181237 75 201 0.0 1.0 0.00 0.00 0.00 86 1010.6
20180920180737 75 210 1.0 2.0 0.00 0.00 0.00 88 1010.6
20180920180237 74 210 2.0 3.0 0.00 0.00 0.00 89 1010.5
20180920175737 73 186 2.0 3.0 0.00 0.00 0.00 90 1010.5
20180920175236 72 216 1.0 3.0 0.00 0.00 0.00 90 1010.5
20180920174736 72 114 1.0 2.0 0.00 0.00 0.00 91 1010.4
20180920174238 71 108 0.0 1.0 0.00 0.00 0.00 90 1010.3
20180920173737 70 108 0.0 0.0 0.00 0.00 0.00 91 1010.3
20180920173237 70 108 1.0 2.0 0.00 0.00 0.00 92 1010.2
20180920172737 69 108 0.0 2.0 0.00 0.00 0.00 92 1010.2
20180920172237 69 108 1.0 2.0 0.00 0.00 0.00 92 1010.3
20180920171737 68 111 2.0 3.0 0.00 0.00 0.00 92 1010.2
20180920171236 68 144 3.0 3.0 0.00 0.00 0.00 93 1010.1
20180920170738 67 136 3.0 3.0 0.00 0.00 0.00 93 1010.0
20180920170238 67 124 3.0 5.0 0.00 0.00 0.00 93 1010.0
20180920165737 66 126 5.0 6.0 0.00 0.00 0.00 92 1010.0
20180920165237 66 111 3.0 5.0 0.00 0.00 0.00 92 1009.9
20180920164737 66 107 3.0 5.0 0.00 0.00 0.00 92 1010.0
20180920164237 66 91 2.0 3.0 0.00 0.00 0.00 92 1010.0
20180920163736 66 72 2.0 3.0 0.00 0.00 0.00 92 1010.0
20180920163236 66 70 1.0 2.0 0.00 0.00 0.00 92 1010.0
20180920162737 66 70 0.0 1.0 0.00 0.00 0.00 92 1010.0
20180920162237 66 70 1.0 2.0 0.00 0.00 0.00 92 1009.9
20180920161737 66 70 0.0 0.0 0.00 0.00 0.00 92 1009.8
20180920161236 66 70 1.0 2.0 0.00 0.00 0.00 91 1009.8
20180920160739 66 70 1.0 2.0 0.00 0.00 0.00 92 1009.8
20180920160238 66 72 2.0 3.0 0.00 0.00 0.00 92 1009.7
20180920155738 66 75 2.0 3.0 0.00 0.00 0.00 92 1009.7
20180920155237 66 54 5.0 6.0 0.00 0.00 0.00 92 1009.6
20180920154737 66 81 1.0 2.0 0.00 0.00 0.00 92 1009.5
20180920154237 66 86 2.0 3.0 0.00 0.00 0.00 92 1009.5
20180920153737 66 86 1.0 2.0 0.00 0.00 0.00 92 1009.4
20180920153236 66 86 2.0 2.0 0.00 0.00 0.00 92 1009.3
20180920152738 66 86 1.0 2.0 0.00 0.00 0.00 92 1009.3
20180920152238 66 85 2.0 3.0 0.00 0.00 0.00 92 1009.2
20180920151738 66 85 2.0 3.0 0.00 0.00 0.00 92 1009.3
20180920151237 66 85 1.0 2.0 0.00 0.00 0.00 92 1009.2
20180920150737 66 85 1.0 2.0 0.00 0.00 0.00 92 1009.2
20180920150237 66 85 1.0 2.0 0.00 0.00 0.00 92 1009.2
20180920145737 66 83 2.0 3.0 0.00 0.00 0.00 92 1009.2
20180920145238 66 60 3.0 6.0 0.00 0.00 0.00 92 1009.2
20180920144738 66 90 1.0 2.0 0.00 0.00 0.00 92 1009.2
20180920144238 66 89 2.0 2.0 0.00 0.00 0.00 92 1009.2
20180920143738 66 89 1.0 2.0 0.00 0.00 0.00 92 1009.2
20180920143237 66 90 1.0 2.0 0.00 0.00 0.00 92 1009.2
20180920142737 66 91 0.0 1.0 0.00 0.00 0.00 92 1009.1
20180920142237 66 90 2.0 3.0 0.00 0.00 0.00 92 1009.2
20180920141737 66 90 3.0 3.0 0.00 0.00 0.00 92 1009.2
20180920141238 66 82 3.0 5.0 0.00 0.00 0.00 92 1009.2
20180920140738 66 80 2.0 3.0 0.00 0.00 0.00 91 1009.1
20180920140238 66 78 1.0 2.0 0.00 0.00 0.00 91 1009.0
20180920135737 66 78 1.0 3.0 0.00 0.00 0.00 91 1009.1
20180920135237 66 77 2.0 3.0 0.00 0.00 0.00 91 1009.1
20180920134737 66 77 1.0 2.0 0.00 0.00 0.00 91 1009.1
20180920134237 66 77 1.0 2.0 0.00 0.00 0.00 91 1009.1
20180920133736 66 78 2.0 3.0 0.00 0.00 0.00 91 1009.1
20180920133238 66 84 2.0 2.0 0.00 0.00 0.00 91 1009.1
20180920132738 66 84 2.0 3.0 0.00 0.00 0.00 91 1009.2
20180920132238 67 84 2.0 2.0 0.00 0.00 0.00 90 1009.2
20180920131738 67 73 2.0 3.0 0.00 0.00 0.00 91 1009.2
20180920131237 67 84 2.0 3.0 0.00 0.00 0.00 90 1009.3
20180920130737 67 84 3.0 3.0 0.00 0.00 0.00 90 1009.4
20180920130237 67 82 1.0 3.0 0.00 0.00 0.00 90 1009.4
20180920125737 67 79 1.0 1.0 0.00 0.00 0.00 90 1009.5
20180920125238 67 83 1.0 3.0 0.00 0.00 0.00 90 1009.5
20180920124738 67 83 2.0 3.0 0.00 0.00 0.00 90 1009.4
20180920124238 67 69 2.0 3.0 0.00 0.00 0.00 90 1009.4
20180920123738 67 64 2.0 3.0 0.00 0.00 0.00 90 1009.5
20180920123238 67 61 3.0 5.0 0.00 0.00 0.00 90 1009.6
20180920122737 67 61 2.0 3.0 0.00 0.00 0.00 90 1009.6
20180920122237 67 61 1.0 2.0 0.00 0.00 0.00 90 1009.7
20180920121737 67 61 2.0 3.0 0.00 0.00 0.00 89 1009.8
20180920121237 67 61 1.0 2.0 0.00 0.00 0.00 89 1009.8
20180920120738 67 61 2.0 3.0 0.00 0.00 0.00 90 1009.9
20180920120238 67 65 1.0 3.0 0.00 0.00 0.00 90 1009.9
20180920115738 68 65 1.0 2.0 0.00 0.00 0.00 89 1010.0
20180920115238 68 65 1.0 2.0 0.00 0.00 0.00 89 1010.0
20180920114738 68 65 1.0 2.0 0.00 0.00 0.00 90 1010.1
20180920114238 68 65 2.0 3.0 0.00 0.00 0.00 90 1010.1
20180920113738 68 81 1.0 3.0 0.00 0.00 0.00 89 1010.1
20180920113238 68 81 1.0 1.0 0.00 0.00 0.00 90 1010.1
20180920112738 68 81 2.0 2.0 0.00 0.00 0.00 90 1010.1
20180920112237 68 105 2.0 3.0 0.00 0.00 0.00 90 1010.1
20180920111737 68 108 2.0 3.0 0.00 0.00 0.00 90 1010.1
20180920111237 68 108 0.0 1.0 0.00 0.00 0.00 90 1010.2
20180920110739 68 108 1.0 1.0 0.00 0.00 0.00 90 1010.2
20180920110238 68 108 1.0 2.0 0.00 0.00 0.00 90 1010.2
20180920105738 68 110 1.0 3.0 0.00 0.00 0.00 90 1010.3
20180920105238 68 98 2.0 3.0 0.00 0.00 0.00 91 1010.3
20180920104738 68 102 2.0 3.0 0.00 0.00 0.00 91 1010.3
20180920104237 68 105 2.0 3.0 0.00 0.00 0.00 91 1010.3
20180920103737 68 108 2.0 3.0 0.00 0.00 0.00 91 1010.5
20180920103237 68 113 1.0 3.0 0.00 0.00 0.00 91 1010.5
20180920102737 68 114 3.0 3.0 0.00 0.00 0.00 91 1010.5
20180920102239 68 84 1.0 2.0 0.00 0.00 0.00 91 1010.6
20180920101738 69 84 2.0 2.0 0.00 0.00 0.00 91 1010.7
20180920101238 69 84 2.0 3.0 0.00 0.00 0.00 91 1010.7
20180920100738 69 84 1.0 2.0 0.00 0.00 0.00 91 1010.8
20180920100237 69 84 1.0 2.0 0.00 0.00 0.00 91 1010.8
20180920095737 69 84 1.0 2.0 0.00 0.00 0.00 91 1010.9
20180920095238 69 84 1.0 2.0 0.00 0.00 0.00 91 1010.9
20180920094738 69 84 2.0 3.0 0.00 0.00 0.00 91 1010.9
20180920094238 69 84 1.0 2.0 0.00 0.00 0.00 91 1010.9
20180920093738 69 98 2.0 3.0 0.00 0.00 0.00 91 1011.0
20180920093238 70 114 0.0 0.0 0.00 0.00 0.00 91 1011.0
20180920092738 70 114 1.0 1.0 0.00 0.00 0.00 91 1011.1
20180920092238 70 112 1.0 2.0 0.00 0.00 0.00 91 1011.1
20180920091738 70 112 1.0 2.0 0.00 0.00 0.00 91 1011.1
20180920091238 70 112 1.0 3.0 0.00 0.00 0.00 91 1011.1
20180920090738 70 112 2.0 3.0 0.00 0.00 0.00 91 1011.0
20180920090237 70 111 1.0 2.0 0.00 0.00 0.00 91 1011.0
20180920085738 70 113 3.0 3.0 0.00 0.00 0.00 90 1011.1
20180920085238 70 114 3.0 5.0 0.00 0.00 0.00 90 1011.2
20180920084738 70 116 3.0 3.0 0.00 0.00 0.00 90 1011.2
20180920084237 70 115 1.0 2.0 0.00 0.00 0.00 90 1011.1
20180920083737 70 115 1.0 2.0 0.00 0.00 0.00 90 1011.1
20180920083239 70 108 1.0 3.0 0.00 0.00 0.00 89 1011.2
20180920082738 70 105 1.0 2.0 0.00 0.00 0.00 89 1011.2
20180920082238 70 105 0.0 0.0 0.00 0.00 0.00 89 1011.1
20180920081738 70 105 0.0 0.0 0.00 0.00 0.00 89 1011.1
20180920081237 71 105 1.0 1.0 0.00 0.00 0.00 89 1011.1
20180920080739 71 105 0.0 0.0 0.00 0.00 0.00 89 1011.0
20180920080239 71 105 1.0 3.0 0.00 0.00 0.00 88 1011.1
20180920075738 71 105 2.0 2.0 0.00 0.00 0.00 88 1011.1
20180920075238 71 105 1.0 2.0 0.00 0.00 0.00 88 1011.2
20180920074739 71 105 1.0 2.0 0.00 0.00 0.00 88 1011.2
20180920074239 71 105 0.0 1.0 0.00 0.00 0.00 88 1011.2
20180920073738 71 105 1.0 2.0 0.00 0.00 0.00 88 1011.1
20180920073238 72 102 1.0 3.0 0.00 0.00 0.00 88 1011.1
20180920072738 72 94 2.0 3.0 0.00 0.00 0.00 88 1011.0
20180920072237 72 86 2.0 3.0 0.00 0.00 0.00 88 1011.0
20180920071737 72 81 2.0 3.0 0.00 0.00 0.00 88 1011.0
20180920071237 72 117 2.0 3.0 0.00 0.00 0.00 88 1011.0
20180920070739 72 121 2.0 3.0 0.00 0.00 0.00 88 1011.0
20180920070239 72 141 2.0 3.0 0.00 0.00 0.00 89 1010.9
20180920065738 72 154 3.0 3.0 0.00 0.00 0.00 89 1010.8
20180920065238 72 143 3.0 5.0 0.00 0.00 0.00 89 1010.6
20180920064738 72 146 3.0 3.0 0.00 0.00 0.00 88 1010.6
20180920064238 72 144 2.0 3.0 0.00 0.00 0.00 88 1010.6
20180920063738 73 144 2.0 3.0 0.00 0.00 0.00 88 1010.6
20180920063238 73 148 1.0 2.0 0.00 0.00 0.00 88 1010.6
20180920062739 73 148 0.0 1.0 0.00 0.00 0.00 88 1010.6
20180920062238 73 148 0.0 1.0 0.00 0.00 0.00 88 1010.5
20180920061738 74 158 1.0 2.0 0.00 0.00 0.00 90 1010.5
20180920061238 74 185 0.0 2.0 0.00 0.00 0.00 91 1010.5
20180920060738 74 186 1.0 2.0 0.00 0.00 0.00 91 1010.5
20180920060238 74 204 1.0 2.0 0.00 0.00 0.00 91 1010.3
20180920055738 74 203 0.0 0.0 0.00 0.00 0.00 91 1010.2
20180920055238 74 203 0.0 0.0 0.00 0.00 0.00 91 1010.1
20180920054738 74 203 1.0 2.0 0.00 0.00 0.00 91 1010.1
20180920054238 74 186 1.0 3.0 0.00 0.00 0.00 91 1010.1
20180920053737 74 187 3.0 3.0 0.00 0.00 0.00 90 1009.9
20180920053239 74 197 3.0 5.0 0.00 0.00 0.00 90 1009.8
20180920052739 75 188 5.0 7.0 0.00 0.00 0.00 90 1009.7
20180920052238 75 187 6.0 8.0 0.00 0.00 0.00 89 1009.7
20180920051738 75 195 3.0 6.0 0.00 0.00 0.00 88 1009.7
20180920051238 76 197 3.0 3.0 0.00 0.00 0.00 87 1009.6
20180920050739 76 212 2.0 3.0 0.00 0.00 0.00 85 1009.5
20180920050239 76 181 3.0 3.0 0.00 0.00 0.00 83 1009.4
20180920045739 76 325 0.0 1.0 0.00 0.00 0.00 79 1009.3
20180920045238 77 325 0.0 0.0 0.00 0.00 0.00 79 1009.2
20180920044738 77 328 1.0 3.0 0.00 0.00 0.00 79 1009.1
20180920044238 77 327 2.0 3.0 0.00 0.00 0.00 78 1009.0
20180920043738 77 5 1.0 3.0 0.00 0.00 0.00 78 1009.0
20180920043238 78 104 2.0 3.0 0.00 0.00 0.00 79 1009.0
20180920042738 78 157 2.0 5.0 0.00 0.00 0.00 80 1008.9
20180920042239 78 164 1.0 2.0 0.00 0.00 0.00 79 1008.9
20180920041739 79 156 6.0 7.0 0.00 0.00 0.00 78 1008.8
20180920041239 79 174 2.0 8.0 0.00 0.00 0.00 76 1008.7
20180920040738 80 152 5.0 7.0 0.00 0.00 0.00 75 1008.6
20180920040238 80 149 3.0 6.0 0.00 0.00 0.00 74 1008.5
20180920035738 81 172 5.0 7.0 0.00 0.00 0.00 74 1008.5
20180920035239 81 147 5.0 5.0 0.00 0.00 0.00 73 1008.4
20180920034739 82 183 6.0 8.0 0.00 0.00 0.00 68 1008.4
20180920034239 82 92 5.0 6.0 0.00 0.00 0.00 64 1008.3
20180920033739 82 78 7.0 9.0 0.00 0.00 0.00 64 1008.1
20180920033238 82 50 8.0 9.0 0.00 0.00 0.00 67 1008.1
20180920032739 82 52 7.0 12.0 0.00 0.00 0.00 64 1008.2
20180920032239 83 67 8.0 10.0 0.00 0.00 0.00 63 1008.2
20180920031739 83 63 8.0 14.0 0.00 0.00 0.00 63 1008.1
20180920031238 83 67 7.0 12.0 0.00 0.00 0.00 65 1008.1
20180920030738 83 56 9.0 14.0 0.00 0.00 0.00 67 1008.1
20180920030240 84 46 7.0 12.0 0.00 0.00 0.00 67 1008.2
20180920025738 84 59 9.0 14.0 0.00 0.00 0.00 67 1008.2
20180920025238 84 44 8.0 13.0 0.00 0.00 0.00 65 1008.1
20180920024738 84 47 9.0 12.0 0.00 0.00 0.00 65 1008.2
20180920024238 84 59 7.0 12.0 0.00 0.00 0.00 67 1008.1
20180920023740 84 47 7.0 12.0 0.00 0.00 0.00 67 1008.1
20180920023239 84 42 8.0 12.0 0.00 0.00 0.00 64 1008.1
20180920022739 85 46 6.0 14.0 0.00 0.00 0.00 66 1008.0
20180920022238 85 46 8.0 8.0 0.00 0.00 0.00 63 1008.1
20180920021738 85 26 6.0 10.0 0.00 0.00 0.00 61 1008.0
20180920021238 85 17 6.0 8.0 0.00 0.00 0.00 62 1008.1
20180920020738 85 29 6.0 10.0 0.00 0.00 0.00 64 1008.1
20180920020239 86 28 7.0 9.0 0.00 0.00 0.00 63 1008.1
20180920015739 86 37 8.0 12.0 0.00 0.00 0.00 64 1008.1
20180920015239 86 60 7.0 12.0 0.00 0.00 0.00 62 1008.1
20180920014739 86 46 7.0 12.0 0.00 0.00 0.00 59 1008.2
20180920014238 86 45 6.0 9.0 0.00 0.00 0.00 56 1008.2
20180920013738 86 50 6.0 8.0 0.00 0.00 0.00 56 1008.2
20180920013238 86 42 7.0 14.0 0.00 0.00 0.00 56 1008.2
20180920012738 86 50 7.0 9.0 0.00 0.00 0.00 59 1008.2
20180920012239 86 44 7.0 13.0 0.00 0.00 0.00 58 1008.2
20180920011739 86 13 6.0 12.0 0.00 0.00 0.00 60 1008.3
20180920011239 87 356 5.0 8.0 0.00 0.00 0.00 57 1008.3
20180920010739 87 5 3.0 10.0 0.00 0.00 0.00 56 1008.4
20180920010239 86 29 5.0 8.0 0.00 0.00 0.00 58 1008.5
20180920005739 86 2 3.0 6.0 0.00 0.00 0.00 59 1008.5
20180920004739 86 0 5.0 7.0 0.00 0.00 0.00 63 1008.6
20180920004239 86 340 6.0 8.0 0.00 0.00 0.00 63 1008.6
20180920003738 86 347 6.0 8.0 0.00 0.00 0.00 65 1008.7
20180920003238 86 346 7.0 8.0 0.00 0.00 0.00 63 1008.8
20180920002738 86 352 7.0 8.0 0.00 0.00 0.00 59 1008.8
20180920002239 86 320 5.0 6.0 0.00 0.00 0.00 63 1008.9
20180920001738 85 356 3.0 3.0 0.00 0.00 0.00 61 1008.8
20180920001240 85 324 6.0 8.0 0.00 0.00 0.00 58 1009.0
20180920000739 84 342 3.0 6.0 0.00 0.00 0.00 62 1009.0
20180920000240 84 350 6.0 7.0 0.00 0.00 0.00 59 1009.1
20180919235739 84 17 3.0 6.0 0.00 0.00 0.00 55 1009.2
20180919235239 84 7 6.0 9.0 0.00 0.00 0.00 56 1009.2
20180919234739 84 28 2.0 5.0 0.00 0.00 0.00 57 1009.2
20180919234239 84 41 6.0 8.0 0.00 0.00 0.00 55 1009.2
20180919233738 85 358 5.0 6.0 0.00 0.00 0.00 56 1009.4
20180919233238 85 7 5.0 6.0 0.00 0.00 0.00 58 1009.4
20180919232738 85 352 3.0 3.0 0.00 0.00 0.00 58 1009.5
20180919232240 85 356 3.0 6.0 0.00 0.00 0.00 58 1009.5
20180919231740 86 359 6.0 7.0 0.00 0.00 0.00 56 1009.5
20180919231239 86 70 5.0 9.0 0.00 0.00 0.00 56 1009.5
20180919230739 86 10 6.0 9.0 0.00 0.00 0.00 55 1009.6
20180919230239 87 32 7.0 9.0 0.00 0.00 0.00 60 1009.7
20180919225739 86 344 3.0 6.0 0.00 0.00 0.00 59 1009.8
20180919225238 86 12 6.0 9.0 0.00 0.00 0.00 54 1010.0
20180919224739 86 333 5.0 9.0 0.00 0.00 0.00 59 1010.0
20180919224239 86 352 3.0 7.0 0.00 0.00 0.00 54 1010.1
20180919223739 86 340 3.0 7.0 0.00 0.00 0.00 54 1010.1
20180919223238 86 349 3.0 3.0 0.00 0.00 0.00 57 1010.3
20180919222738 85 333 6.0 8.0 0.00 0.00 0.00 58 1010.3
20180919222240 85 7 5.0 8.0 0.00 0.00 0.00 65 1010.4
20180919221740 84 348 3.0 6.0 0.00 0.00 0.00 63 1010.4
20180919221238 84 351 3.0 6.0 0.00 0.00 0.00 66 1010.5
20180919220740 83 13 3.0 5.0 0.00 0.00 0.00 66 1010.6
20180919220240 83 354 5.0 5.0 0.00 0.00 0.00 70 1010.6
20180919215739 83 6 3.0 5.0 0.00 0.00 0.00 73 1010.7
20180919215238 82 330 2.0 3.0 0.00 0.00 0.00 72 1010.8
20180919214740 82 335 3.0 5.0 0.00 0.00 0.00 70 1011.0
20180919214240 82 341 3.0 6.0 0.00 0.00 0.00 71 1010.9
20180919213739 82 355 2.0 3.0 0.00 0.00 0.00 72 1010.9
20180919213239 83 16 3.0 5.0 0.00 0.00 0.00 69 1010.9
20180919212739 83 23 3.0 5.0 0.00 0.00 0.00 68 1011.0
20180919212239 84 18 3.0 7.0 0.00 0.00 0.00 66 1011.1
20180919211739 85 3 3.0 3.0 0.00 0.00 0.00 64 1011.1
20180919211238 86 10 5.0 5.0 0.00 0.00 0.00 61 1011.2